Stations météo

Publicité
Logan Botanic Garden, Grande-Bretagne (99193): Température de l'air & dewpoint: 20.09.2017 12:00:00 - 26.09.2017 12:00:00 (BST)Logan Botanic Garden, Grande-Bretagne (99193): Température de l'air -20cm: 20.09.2017 12:00:00 - 26.09.2017 12:00:00 (BST)Logan Botanic Garden, Grande-Bretagne (99193): Quantités de précipitations: 20.09.2017 12:00:00 - 26.09.2017 12:00:00 (BST)
Date & Time tt [°C] td [°C] tt -20cm [°C] rr [mm]
26.09.2017 12:00:00 - - - -
26.09.2017 11:00:00 15,3 14,2 - 0,0
26.09.2017 10:00:00 14,3 14,0 13,5 0,0
26.09.2017 09:00:00 12,3 12,3 - 0,2
26.09.2017 08:00:00 11,6 11,5 - 0,0
26.09.2017 07:00:00 10,6 10,5 - 0,0
26.09.2017 06:00:00 10,9 10,8 - 0,0
26.09.2017 05:00:00 10,5 10,4 - 0,0
26.09.2017 04:00:00 8,7 8,5 - 0,0
26.09.2017 03:00:00 8,9 8,7 - 0,0
26.09.2017 02:00:00 9,6 9,4 - 0,0
26.09.2017 01:00:00 10,3 10,1 - 0,2
26.09.2017 00:00:00 9,5 9,3 - 0,0
25.09.2017 23:00:00 9,4 9,1 - 0,0
25.09.2017 22:00:00 9,6 9,1 - 0,0
25.09.2017 21:00:00 10,1 9,6 - 0,0
25.09.2017 20:00:00 10,8 10,1 - 0,0
25.09.2017 19:00:00 12,0 10,8 - 0,0
25.09.2017 18:00:00 13,4 11,5 - 0,0
25.09.2017 17:00:00 14,1 11,5 - 0,0
25.09.2017 16:00:00 15,2 12,2 - 0,0
25.09.2017 15:00:00 15,4 12,7 - 0,0
25.09.2017 14:00:00 15,1 12,2 - 0,0
25.09.2017 13:00:00 15,1 13,7 - 0,0
25.09.2017 12:00:00 13,4 12,6 - 0,0
25.09.2017 11:00:00 13,0 12,6 - 0,0
25.09.2017 10:00:00 13,3 13,1 13,5 0,0
25.09.2017 09:00:00 12,0 11,9 - 0,0
25.09.2017 08:00:00 11,1 11,0 - 0,0
25.09.2017 07:00:00 9,7 9,5 - 0,0
25.09.2017 06:00:00 11,3 11,2 - 0,0
25.09.2017 05:00:00 10,1 9,9 - 0,0
25.09.2017 04:00:00 9,7 9,6 - 0,0
25.09.2017 03:00:00 10,1 9,9 - 0,2
25.09.2017 02:00:00 10,3 10,1 - 0,0
25.09.2017 01:00:00 10,4 10,2 - 0,0
25.09.2017 00:00:00 11,2 11,0 - 0,0
24.09.2017 23:00:00 10,9 10,5 - 0,0
24.09.2017 22:00:00 11,9 11,5 - 0,0
24.09.2017 21:00:00 12,8 12,4 - 0,2
24.09.2017 20:00:00 13,2 12,7 - 0,0
24.09.2017 19:00:00 14,0 13,7 - 0,8
24.09.2017 18:00:00 14,2 13,8 - 0,2
24.09.2017 17:00:00 14,2 13,9 - 0,0
24.09.2017 16:00:00 14,4 14,0 - 0,0
24.09.2017 15:00:00 14,5 14,0 - 0,0
24.09.2017 14:00:00 14,4 14,0 - 0,2
24.09.2017 13:00:00 14,3 13,8 - 0,2
24.09.2017 12:00:00 14,2 13,7 - 0,0
24.09.2017 11:00:00 14,3 13,9 - 0,4
24.09.2017 10:00:00 13,8 13,4 13,7 0,4
24.09.2017 09:00:00 13,7 13,2 - 0,0
24.09.2017 08:00:00 13,5 12,9 - 0,2
24.09.2017 07:00:00 13,3 12,7 - 1,0
24.09.2017 06:00:00 13,0 12,5 - 1,8
24.09.2017 05:00:00 13,3 12,4 - 1,4
24.09.2017 04:00:00 14,5 11,9 - 0,0
24.09.2017 03:00:00 14,4 11,5 - 0,2
24.09.2017 02:00:00 14,1 11,5 - 0,0
24.09.2017 01:00:00 15,0 10,6 - 0,0
24.09.2017 00:00:00 15,5 10,4 - 0,0
23.09.2017 23:00:00 15,6 10,7 - 0,0
23.09.2017 22:00:00 15,5 10,6 - 0,0
23.09.2017 21:00:00 15,6 10,5 - 0,0
23.09.2017 20:00:00 15,4 10,6 - 0,0
23.09.2017 19:00:00 15,7 8,8 - 0,0
23.09.2017 18:00:00 15,7 11,7 - 0,0
23.09.2017 17:00:00 15,8 13,6 - 0,0
23.09.2017 16:00:00 16,1 13,9 - 0,0
23.09.2017 15:00:00 16,3 14,3 - 0,0
23.09.2017 14:00:00 16,2 14,5 - 0,0
23.09.2017 13:00:00 16,0 14,0 - 0,0
23.09.2017 12:00:00 15,4 14,0 - 0,0
23.09.2017 11:00:00 15,0 14,0 - 0,2
23.09.2017 10:00:00 15,0 13,7 13,4 0,0
23.09.2017 09:00:00 14,5 13,2 - 0,0
23.09.2017 08:00:00 14,0 12,1 - 0,0
23.09.2017 07:00:00 13,5 12,2 - 0,0
23.09.2017 06:00:00 13,2 11,8 - 0,0
23.09.2017 05:00:00 13,5 12,0 - 0,0
23.09.2017 04:00:00 13,5 12,3 - 0,2
23.09.2017 03:00:00 13,1 12,1 - 0,0
23.09.2017 02:00:00 13,2 11,8 - 0,0
23.09.2017 01:00:00 12,9 12,2 - 0,0
23.09.2017 00:00:00 12,2 11,5 - 0,0
22.09.2017 23:00:00 12,6 12,2 - 0,0
22.09.2017 22:00:00 12,5 11,9 - 0,0
22.09.2017 21:00:00 12,7 12,2 - 0,0
22.09.2017 20:00:00 12,9 12,2 - 0,0
22.09.2017 19:00:00 13,9 13,2 - 0,0
22.09.2017 18:00:00 14,5 13,6 - 0,0
22.09.2017 17:00:00 15,1 13,9 - 0,0
22.09.2017 16:00:00 14,8 13,8 - 0,0
22.09.2017 15:00:00 14,0 13,2 - 0,6
22.09.2017 14:00:00 13,1 12,3 - 0,6
22.09.2017 13:00:00 13,2 11,9 - 1,4
22.09.2017 12:00:00 12,4 11,3 - 1,2
22.09.2017 11:00:00 12,9 11,3 - 1,6
22.09.2017 10:00:00 12,6 10,9 13,7 0,8
22.09.2017 09:00:00 13,3 10,7 - 0,2
22.09.2017 08:00:00 13,2 9,4 - 0,0
22.09.2017 07:00:00 12,6 10,5 - 0,0
22.09.2017 06:00:00 11,3 8,7 - 0,0
22.09.2017 05:00:00 12,1 9,5 - 0,0
22.09.2017 04:00:00 12,6 9,3 - 0,0
22.09.2017 03:00:00 12,8 9,5 - 0,0
22.09.2017 02:00:00 12,6 9,5 - 0,0
22.09.2017 01:00:00 11,9 9,5 - 0,0
22.09.2017 00:00:00 12,8 9,5 - 0,0
21.09.2017 23:00:00 13,0 9,4 - 0,0
21.09.2017 22:00:00 13,0 9,6 - 0,0
21.09.2017 21:00:00 12,9 9,4 - 0,0
21.09.2017 20:00:00 12,8 9,6 - 0,0
21.09.2017 19:00:00 12,8 8,7 - 0,0
21.09.2017 18:00:00 12,9 7,8 - 0,0
21.09.2017 17:00:00 15,1 8,0 - 0,0
21.09.2017 16:00:00 15,1 7,9 - 0,0
21.09.2017 15:00:00 14,5 8,5 - 0,0
21.09.2017 14:00:00 14,1 9,4 - 0,0
21.09.2017 13:00:00 13,8 10,6 - 0,2
21.09.2017 12:00:00 12,5 10,5 - 0,0
21.09.2017 11:00:00 12,3 9,8 - 0,0
21.09.2017 10:00:00 12,0 10,3 13,7 0,0
21.09.2017 09:00:00 11,3 10,4 - 0,0
21.09.2017 08:00:00 10,9 10,1 - 0,0
21.09.2017 07:00:00 10,6 9,8 - 0,0
21.09.2017 06:00:00 10,2 9,5 - 1,8
21.09.2017 05:00:00 10,4 9,7 - 3,0
21.09.2017 04:00:00 11,0 10,3 - 0,8
21.09.2017 03:00:00 11,2 10,5 - 0,4
21.09.2017 02:00:00 11,4 10,7 - 0,4
21.09.2017 01:00:00 11,7 10,7 - 0,0
21.09.2017 00:00:00 11,6 10,5 - 0,0
20.09.2017 23:00:00 12,1 10,8 - 0,0
20.09.2017 22:00:00 12,3 11,6 - 0,0
20.09.2017 21:00:00 12,4 12,0 - 0,0
20.09.2017 20:00:00 12,8 12,4 - 0,4
20.09.2017 19:00:00 13,0 12,7 - 1,2
20.09.2017 18:00:00 14,9 14,6 - 7,8
20.09.2017 17:00:00 14,9 14,5 - 1,6
20.09.2017 16:00:00 14,5 14,2 - 5,0
20.09.2017 15:00:00 14,5 14,2 - 1,4
20.09.2017 14:00:00 14,6 14,1 - 0,0
20.09.2017 13:00:00 14,6 14,1 - 2,2
20.09.2017 12:00:00 14,4 14,0 - 3,8

tt = Température de l'air
td = dewpoint
tt -20cm = Température de l'air -20cm
rr = Quantités de précipitations

stations d'obs. à proximité